Decoded Metar for KAVP (AVOCA/WILKES B. in PA, USA) (IATA:AVP) | Meteo·Mobile Aviation Weather
aviador You're here:

KAVP Decoded Metar

AVOCA/WILKES B. in PA, USA
Report Time2018-09-19 16:54:00
UTC Time2018-09-19 17:07:08
Flight Rules vfr VFR
Wind310° at 05 kt
W.Decomp.*RWY 28: 3.8 kt HW 3.3 kt RCW
RWY 04: 1.0 kt HW 4.9 kt LCW
W.Rank310° ranks 12
Current wind is below 310° avg. (8.7)
Visibility9999 m
Phenomena:N/A
Clouds:Few 021 Hf
Expected CloudBase > 2,400 ft AGL from Temp-Dew spread
CeilingNone
Temp23°C (ISA +10)
Dew Point17°C (69% RH)
QNH1016 hPa
Density Alt2,264 ft
Elevation955 ft
Report Wrong Elevation
Raw Report
KAVP 191654Z 31005KT 10SM FEW021 23/17 A2999 RMK AO2 SLP149
T02330172=

Extra information for KAVP:More info

Metar Taf Metar & Taf Last 4 Metars F.Rules Stats Wind Profile Meteogram Temp Stats Airport Information Weather charts Add Link Nearby VenuesMetar ALERT Operation Metar Decoded Social comments

AIRNAV info for KAVP